Valley, Nebraska
Current Conditions -  °F | °C
As of 1:15 PM on Monday 20 Oct 2014 (Local Time) from KFET Reporting Station
Clear Clear  
Wind Chill: 69°   Ceiling: Unl
Heat Index: 69°   Visibility: 10mi
Dew Point: 38°   Wind: 3mph
Humidity: 32%   Direction: 10°N
Pressure: 30.1"   Gusts: NA
Location:  41.31°N, 96.35°W
Report Text: KFET 201815Z AUTO 01003KT 10SM CLR 21/03 A3010 RMK AO2 T02050032
Loading
Personal Weather Stations






























Interactive Weather Map
Tropical Storm Tracking
New forecast layout! Learn more

10-Day Weather Forecast

Advertisements
Track Severe Weather on mobile